Conklin, Canada
Current Conditions -  °F | °C
As of 2:33 PM on Friday 28 Nov 2014 (Local Time) from CWHN Reporting Station
Light Snow Light Snow  
Wind Chill: -26°   Ceiling: 100
Heat Index: -8°   Visibility: 1.2mi
Dew Point: -15°   Wind: 10mph
Humidity: 71%   Direction: 30°NNE
Pressure: 29.76"   Gusts: 17mph
Location:  55.63°N, 111.08°W
Report Text: CWHN 282133Z AUTO 03009G15KT 350V070 1 1/4SM -SN BKN001 OVC017 M22/M26 A2976
Loading
Personal Weather Stations






























Interactive Weather Map New forecast layout! Learn more

10-Day Weather Forecast

Advertisements
Track Severe Weather on mobile